Time;durP1;ratioP1;P1;durP2;ratioP2;P2;SDS_P1;SDS_P2;PMS_P1;PMS_P2;Temp;Humidity;BMP_temperature;BMP_pressure;BME280_temperature;BME280_humidity;BME280_pressure;Samples;Min_cycle;Max_cycle;Signal;HPM_P1;HPM_P2
2022/07/17 00:00:44;;;;;;;2.87;2.57;;;15.80;98.80;;;;;;5033642;28;20491;-72
2022/07/17 00:03:12;;;;;;;3.83;3.20;;;15.80;98.80;;;;;;5033932;28;20471;-72
2022/07/17 00:05:41;;;;;;;3.67;3.20;;;15.70;98.60;;;;;;5091395;22;20495;-90
2022/07/17 00:08:09;;;;;;;3.80;3.30;;;15.70;98.80;;;;;;5077587;28;20542;-94
2022/07/17 00:10:37;;;;;;;3.60;3.30;;;15.70;99.20;;;;;;5074688;28;20454;-93
2022/07/17 00:13:05;;;;;;;3.73;3.43;;;15.60;99.20;;;;;;5075395;28;20478;-94
2022/07/17 00:15:31;;;;;;;4.40;3.90;;;15.60;99.10;;;;;;5075149;28;20475;-93
2022/07/17 00:18:00;;;;;;;4.30;3.43;;;15.50;99.20;;;;;;5074877;28;20451;-93
2022/07/17 00:20:27;;;;;;;4.87;3.53;;;15.50;99.30;;;;;;5074581;28;20480;-94
2022/07/17 00:23:07;;;;;;;2.80;2.60;;;15.50;99.40;;;;;;5077020;28;20491;-93
2022/07/17 00:25:34;;;;;;;6.07;3.77;;;15.40;99.50;;;;;;5076164;28;20530;-92
2022/07/17 00:30:57;;;;;;;3.83;3.33;;;15.40;99.80;;;;;;5076273;28;20447;-92
2022/07/17 00:33:25;;;;;;;4.30;3.13;;;15.30;99.80;;;;;;5077435;28;20531;-94
2022/07/17 00:35:54;;;;;;;4.00;3.60;;;15.30;99.90;;;;;;5075173;28;20502;-92
2022/07/17 00:38:23;;;;;;;3.20;2.90;;;15.30;99.90;;;;;;5077495;28;20451;-93
2022/07/17 00:40:52;;;;;;;5.30;3.10;;;15.30;99.90;;;;;;5076916;28;20479;-93
2022/07/17 00:43:19;;;;;;;3.60;3.07;;;15.20;99.90;;;;;;5080884;28;20463;-93
2022/07/17 00:45:46;;;;;;;4.07;3.30;;;15.20;99.90;;;;;;5080101;28;20590;-94
2022/07/17 00:48:16;;;;;;;3.70;3.40;;;15.20;99.90;;;;;;5080312;28;20458;-94
2022/07/17 00:50:43;;;;;;;3.57;3.27;;;15.10;99.90;;;;;;5079571;28;20487;-94
2022/07/17 00:53:25;;;;;;;3.40;3.10;;;15.10;99.90;;;;;;5080336;28;20443;-94
2022/07/17 00:55:56;;;;;;;4.53;3.00;;;15.10;99.90;;;;;;5080373;28;20479;-93
2022/07/17 00:58:29;;;;;;;4.00;3.60;;;15.00;99.90;;;;;;5080190;28;20468;-93
2022/07/17 01:00:58;;;;;;;4.73;3.47;;;15.00;99.90;;;;;;5079601;28;20491;-93
2022/07/17 01:03:26;;;;;;;3.97;3.23;;;15.00;99.90;;;;;;5080303;28;20443;-94
2022/07/17 01:06:11;;;;;;;3.70;3.20;;;14.90;99.90;;;;;;5079799;28;20490;-93
2022/07/17 01:09:10;;;;;;;3.70;3.40;;;14.90;99.90;;;;;;5080228;28;20447;-94
2022/07/17 01:14:43;;;;;;;3.80;3.30;;;14.90;99.90;;;;;;5079803;28;20444;-94
2022/07/17 01:17:14;;;;;;;4.03;3.63;;;14.80;99.90;;;;;;5080208;28;20475;-95
2022/07/17 01:19:41;;;;;;;6.50;3.70;;;14.80;99.90;;;;;;5079944;28;20482;-94
2022/07/17 01:22:12;;;;;;;4.03;3.43;;;14.80;99.90;;;;;;5080211;28;20435;-94
2022/07/17 01:24:58;;;;;;;3.67;3.37;;;14.80;99.90;;;;;;5080429;28;20428;-94
2022/07/17 01:27:25;;;;;;;3.17;2.87;;;14.70;99.90;;;;;;5080266;28;20447;-94
2022/07/17 01:30:26;;;;;;;3.80;3.47;;;14.70;99.90;;;;;;5079853;28;20466;-95
2022/07/17 01:33:00;;;;;;;5.67;3.90;;;14.70;99.90;;;;;;5079261;28;20434;-94
2022/07/17 01:38:30;;;;;;;3.90;3.50;;;14.60;99.90;;;;;;5078516;28;20461;-95
2022/07/17 01:43:41;;;;;;;4.00;3.70;;;14.50;99.90;;;;;;5037929;28;20472;-94
2022/07/17 01:46:08;;;;;;;4.20;3.73;;;14.50;99.90;;;;;;5054677;22;20498;-73
2022/07/17 01:48:35;;;;;;;4.13;3.73;;;14.50;99.90;;;;;;5052839;28;20459;-73
2022/07/17 01:51:03;;;;;;;5.23;3.37;;;14.50;99.90;;;;;;5051797;28;20458;-74
2022/07/17 01:53:32;;;;;;;4.03;3.63;;;14.40;99.90;;;;;;5052514;28;20517;-72
2022/07/17 01:55:58;;;;;;;4.57;4.17;;;14.40;99.90;;;;;;5052132;28;20471;-73
2022/07/17 01:58:25;;;;;;;4.53;4.07;;;14.40;99.90;;;;;;5052460;28;20467;-72
2022/07/17 02:00:52;;;;;;;3.80;3.50;;;14.40;99.90;;;;;;5050691;28;20517;-73
2022/07/17 02:03:19;;;;;;;4.10;3.50;;;14.30;99.90;;;;;;5052228;28;20836;-73
2022/07/17 02:05:46;;;;;;;4.80;3.53;;;14.30;99.90;;;;;;5052170;28;21011;-73
2022/07/17 02:08:13;;;;;;;4.63;3.63;;;14.30;99.90;;;;;;5051774;28;20967;-73
2022/07/17 02:10:41;;;;;;;4.77;3.73;;;14.30;99.90;;;;;;5051859;28;20455;-73
2022/07/17 02:13:08;;;;;;;3.83;3.53;;;14.20;99.90;;;;;;5052116;28;20881;-72
2022/07/17 02:15:34;;;;;;;4.10;3.70;;;14.20;99.90;;;;;;5052306;28;20483;-73
2022/07/17 02:18:01;;;;;;;6.37;3.70;;;14.10;99.90;;;;;;5051908;28;20869;-72
2022/07/17 02:20:28;;;;;;;4.57;4.03;;;14.10;99.90;;;;;;5051458;28;20528;-73
2022/07/17 02:22:54;;;;;;;3.73;3.43;;;14.10;99.90;;;;;;5051892;28;20470;-73
2022/07/17 02:25:21;;;;;;;4.97;3.47;;;14.10;99.90;;;;;;5051739;28;20848;-73
2022/07/17 02:27:49;;;;;;;3.90;3.57;;;14.10;99.90;;;;;;5052013;28;20466;-73
2022/07/17 02:30:17;;;;;;;4.10;3.70;;;14.10;99.90;;;;;;5050982;28;20870;-72
2022/07/17 02:32:45;;;;;;;6.70;3.60;;;14.10;99.90;;;;;;5051929;28;20994;-73
2022/07/17 02:35:12;;;;;;;5.43;3.37;;;14.00;99.90;;;;;;5051303;28;20491;-72
2022/07/17 02:37:41;;;;;;;3.80;3.50;;;14.10;99.90;;;;;;5051432;28;20876;-72
2022/07/17 02:40:10;;;;;;;5.10;3.87;;;14.10;99.90;;;;;;5050642;28;20552;-73
2022/07/17 02:42:36;;;;;;;3.63;3.33;;;14.00;99.90;;;;;;5051303;28;20950;-73
2022/07/17 02:45:06;;;;;;;3.90;3.50;;;14.00;99.90;;;;;;5051272;28;20510;-73
2022/07/17 02:47:35;;;;;;;4.27;3.60;;;14.00;99.90;;;;;;5051272;28;20472;-73
2022/07/17 02:50:04;;;;;;;4.40;4.00;;;14.00;99.90;;;;;;5050706;28;20459;-73
2022/07/17 02:52:30;;;;;;;4.60;4.20;;;14.00;99.90;;;;;;5051011;28;20469;-73
2022/07/17 02:54:57;;;;;;;4.10;3.70;;;14.00;99.90;;;;;;5051289;28;20486;-72
2022/07/17 02:57:24;;;;;;;4.80;4.10;;;13.90;99.90;;;;;;5051422;28;20467;-72
2022/07/17 02:59:51;;;;;;;4.10;3.53;;;13.90;99.90;;;;;;5050328;28;20463;-73
2022/07/17 03:02:19;;;;;;;6.30;4.00;;;13.90;99.90;;;;;;5051446;28;20844;-72
2022/07/17 03:04:45;;;;;;;5.80;3.97;;;13.90;99.90;;;;;;5051455;28;20476;-73
2022/07/17 03:07:12;;;;;;;4.60;3.83;;;13.80;99.90;;;;;;5051369;28;20463;-73
2022/07/17 03:09:39;;;;;;;4.17;3.77;;;13.80;99.90;;;;;;5053331;28;20460;-73
2022/07/17 03:12:06;;;;;;;4.80;4.10;;;13.80;99.90;;;;;;5053512;28;20463;-73
2022/07/17 03:14:33;;;;;;;3.97;3.67;;;13.80;99.90;;;;;;5053746;28;20460;-73
2022/07/17 03:17:00;;;;;;;4.47;3.90;;;13.70;99.90;;;;;;5053002;28;20464;-73
2022/07/17 03:19:28;;;;;;;4.83;4.43;;;13.70;99.90;;;;;;5052529;28;20467;-73
2022/07/17 03:21:54;;;;;;;5.00;4.00;;;13.70;99.90;;;;;;5053316;28;20514;-73
2022/07/17 03:24:21;;;;;;;4.50;4.10;;;13.60;99.90;;;;;;5052735;28;20467;-72
2022/07/17 03:26:48;;;;;;;4.90;4.00;;;13.60;99.90;;;;;;5052939;28;21152;-73
2022/07/17 03:29:17;;;;;;;6.47;3.67;;;13.60;99.90;;;;;;5052299;28;20456;-74
2022/07/17 03:31:43;;;;;;;4.23;3.87;;;13.60;99.90;;;;;;5053002;28;20467;-73
2022/07/17 03:34:10;;;;;;;4.20;3.80;;;13.60;99.90;;;;;;5052356;28;20549;-73
2022/07/17 03:36:38;;;;;;;6.80;4.00;;;13.60;99.90;;;;;;5052578;28;20490;-74
2022/07/17 03:39:05;;;;;;;4.70;4.30;;;13.60;99.90;;;;;;5051972;28;20459;-73
2022/07/17 03:41:32;;;;;;;4.80;3.50;;;13.50;99.90;;;;;;5052086;28;20579;-72
2022/07/17 03:43:58;;;;;;;4.50;4.20;;;13.50;99.90;;;;;;5051894;28;20479;-72
2022/07/17 03:46:25;;;;;;;4.57;4.13;;;13.40;99.90;;;;;;5051973;28;20491;-74
2022/07/17 03:48:52;;;;;;;4.13;3.73;;;13.40;99.90;;;;;;5051421;28;20460;-73
2022/07/17 03:51:18;;;;;;;4.67;3.63;;;13.40;99.90;;;;;;5050725;28;20463;-73
2022/07/17 03:53:46;;;;;;;4.57;3.77;;;13.40;99.90;;;;;;5051857;28;20466;-72
2022/07/17 03:56:13;;;;;;;3.70;3.40;;;13.40;99.90;;;;;;5051203;28;20483;-72
2022/07/17 03:58:40;;;;;;;4.00;3.60;;;13.40;99.90;;;;;;5051384;28;20879;-73
2022/07/17 04:01:07;;;;;;;5.67;4.30;;;13.30;99.90;;;;;;5050690;28;20479;-73
2022/07/17 04:03:34;;;;;;;3.93;3.53;;;13.30;99.90;;;;;;5051501;28;20470;-72
2022/07/17 04:06:01;;;;;;;3.73;3.30;;;13.30;99.90;;;;;;5051053;28;20471;-72
2022/07/17 04:08:27;;;;;;;3.77;3.47;;;13.30;99.90;;;;;;5051030;28;20459;-72
2022/07/17 04:10:55;;;;;;;4.90;4.00;;;13.30;99.90;;;;;;5050628;28;20467;-73
2022/07/17 04:13:22;;;;;;;4.87;4.37;;;13.30;99.90;;;;;;5051373;28;20466;-72
2022/07/17 04:15:56;;;;;;;3.73;3.43;;;13.30;99.90;;;;;;5051118;28;20514;-72
2022/07/17 04:18:25;;;;;;;4.67;4.27;;;13.30;99.90;;;;;;5051116;28;20521;-72
2022/07/17 04:20:53;;;;;;;4.63;4.10;;;13.30;99.90;;;;;;5050223;28;20876;-72
2022/07/17 04:23:20;;;;;;;4.17;3.87;;;13.30;99.90;;;;;;5052740;28;20554;-73
2022/07/17 04:25:47;;;;;;;4.03;3.73;;;13.40;99.90;;;;;;5054984;28;20486;-73
2022/07/17 04:28:15;;;;;;;4.60;4.20;;;13.40;99.90;;;;;;5054869;28;20868;-72
2022/07/17 04:30:43;;;;;;;4.53;3.77;;;13.40;99.90;;;;;;5054565;28;20910;-73
2022/07/17 04:33:09;;;;;;;6.27;4.30;;;13.40;99.90;;;;;;5055008;28;20592;-73
2022/07/17 04:35:36;;;;;;;7.07;4.67;;;13.40;99.90;;;;;;5054918;28;20871;-72
2022/07/17 04:38:04;;;;;;;4.40;4.00;;;13.40;99.90;;;;;;5054770;28;20467;-73
2022/07/17 04:40:31;;;;;;;6.43;4.70;;;13.50;99.90;;;;;;5054640;28;20483;-72
2022/07/17 04:42:57;;;;;;;4.57;3.93;;;13.50;99.90;;;;;;5054689;28;20455;-72
2022/07/17 04:45:25;;;;;;;4.47;4.07;;;13.50;99.90;;;;;;5054838;28;20487;-73
2022/07/17 04:47:52;;;;;;;4.20;3.90;;;13.60;99.90;;;;;;5055441;28;20848;-74
2022/07/17 04:50:19;;;;;;;5.13;3.87;;;13.60;99.90;;;;;;5055426;28;20966;-73
2022/07/17 04:52:46;;;;;;;4.30;3.77;;;13.60;99.90;;;;;;5056150;28;20459;-73
2022/07/17 04:55:13;;;;;;;5.37;4.50;;;13.70;99.90;;;;;;5056100;28;20486;-72
2022/07/17 04:57:40;;;;;;;4.70;4.13;;;13.80;99.90;;;;;;5056187;28;20467;-73
2022/07/17 05:00:08;;;;;;;4.40;4.00;;;13.80;99.90;;;;;;5054507;28;20490;-73
2022/07/17 05:02:37;;;;;;;3.80;3.50;;;13.90;99.90;;;;;;5055794;28;21022;-72
2022/07/17 05:05:05;;;;;;;5.67;4.40;;;13.90;99.90;;;;;;5055190;28;20483;-72
2022/07/17 05:07:32;;;;;;;5.60;5.00;;;14.00;99.90;;;;;;5055088;28;20471;-73
2022/07/17 05:09:58;;;;;;;5.23;3.90;;;14.00;99.90;;;;;;5053871;28;20868;-73
2022/07/17 05:12:25;;;;;;;4.43;4.10;;;14.10;99.90;;;;;;5054159;28;20467;-73
2022/07/17 05:14:52;;;;;;;5.03;4.07;;;14.20;99.90;;;;;;5054676;28;20599;-73
2022/07/17 05:17:18;;;;;;;7.13;4.23;;;14.30;99.90;;;;;;5054738;28;20463;-73
2022/07/17 05:19:46;;;;;;;5.60;4.40;;;14.30;99.90;;;;;;5054441;28;20459;-73
2022/07/17 05:22:13;;;;;;;4.40;4.00;;;14.40;99.90;;;;;;5054367;28;20483;-73
2022/07/17 05:24:40;;;;;;;4.90;4.40;;;14.40;99.90;;;;;;5054498;28;20501;-74
2022/07/17 05:27:07;;;;;;;5.60;3.87;;;14.50;99.90;;;;;;5054647;28;20467;-73
2022/07/17 05:29:33;;;;;;;4.70;4.10;;;14.60;99.90;;;;;;5054070;28;20464;-72
2022/07/17 05:32:00;;;;;;;4.40;4.00;;;14.70;99.90;;;;;;5054218;28;20463;-73
2022/07/17 05:34:27;;;;;;;4.30;4.00;;;14.70;99.90;;;;;;5053440;28;20467;-73
2022/07/17 05:36:55;;;;;;;4.27;3.90;;;14.80;99.90;;;;;;5054462;28;20468;-73
2022/07/17 05:39:21;;;;;;;4.93;4.30;;;14.90;99.90;;;;;;5054319;28;20466;-73
2022/07/17 05:41:48;;;;;;;5.53;4.20;;;15.00;99.90;;;;;;5054641;28;20496;-73
2022/07/17 05:44:15;;;;;;;5.30;4.50;;;15.00;99.90;;;;;;5058281;28;20967;-73
2022/07/17 05:46:41;;;;;;;8.70;4.23;;;15.20;99.90;;;;;;5057274;28;20869;-73
2022/07/17 05:49:08;;;;;;;5.90;4.13;;;15.30;99.90;;;;;;5056470;28;20459;-73
2022/07/17 05:51:34;;;;;;;8.10;4.10;;;15.50;99.90;;;;;;5057554;28;20455;-72
2022/07/17 05:54:03;;;;;;;4.73;3.87;;;15.60;99.90;;;;;;5056985;28;20466;-72
2022/07/17 05:56:29;;;;;;;4.10;3.70;;;15.70;99.90;;;;;;5056783;28;20483;-72
2022/07/17 05:58:56;;;;;;;5.50;3.83;;;15.80;99.90;;;;;;5056621;28;20459;-72
2022/07/17 06:01:23;;;;;;;6.10;4.00;;;15.90;99.90;;;;;;5055362;28;20487;-72
2022/07/17 06:03:49;;;;;;;5.10;4.23;;;16.00;99.90;;;;;;5056185;28;20483;-72
2022/07/17 06:06:16;;;;;;;6.00;4.83;;;16.10;99.90;;;;;;5073045;22;20503;-95
2022/07/17 06:08:43;;;;;;;4.33;3.93;;;16.20;99.90;;;;;;5037735;28;20985;-93
2022/07/17 06:11:11;;;;;;;7.07;4.03;;;16.30;99.90;;;;;;5038379;28;20461;-92
2022/07/17 06:13:38;;;;;;;5.27;3.60;;;16.40;99.90;;;;;;5038909;28;20559;-92
2022/07/17 06:19:02;;;;;;;5.20;4.30;;;16.60;99.90;;;;;;5037499;28;20468;-92
2022/07/17 06:21:29;;;;;;;4.30;3.90;;;16.70;99.90;;;;;;5037369;28;20486;-92
2022/07/17 06:23:56;;;;;;;5.80;3.63;;;16.70;99.90;;;;;;5038667;28;20456;-92
2022/07/17 06:26:25;;;;;;;4.10;3.30;;;16.90;99.90;;;;;;5037210;28;20480;-92
2022/07/17 06:32:13;;;;;;;3.90;3.37;;;17.10;99.90;;;;;;5038304;28;20454;-93
2022/07/17 06:34:40;;;;;;;4.23;3.83;;;17.20;99.90;;;;;;5038409;28;20475;-92
2022/07/17 06:39:48;;;;;;;4.77;3.67;;;17.30;99.90;;;;;;5039059;28;20830;-93
2022/07/17 06:42:16;;;;;;;5.13;2.97;;;17.30;99.90;;;;;;5045191;28;20527;-92
2022/07/17 06:44:43;;;;;;;2.87;2.67;;;17.40;99.90;;;;;;5042512;28;20472;-92
2022/07/17 06:47:10;;;;;;;3.20;2.90;;;17.50;99.30;;;;;;5040331;28;21044;-92
2022/07/17 06:49:37;;;;;;;3.57;3.10;;;17.60;99.10;;;;;;5043586;28;20492;-92
2022/07/17 06:52:04;;;;;;;3.10;2.90;;;17.70;99.10;;;;;;5043536;28;20453;-92
2022/07/17 06:54:31;;;;;;;3.23;2.93;;;17.80;98.70;;;;;;5038639;28;20491;-92
2022/07/17 06:56:58;;;;;;;5.77;3.40;;;17.90;99.00;;;;;;5035824;28;20861;-92
2022/07/17 06:59:26;;;;;;;3.40;3.10;;;18.00;98.40;;;;;;5039204;28;20468;-92
2022/07/17 07:01:53;;;;;;;3.20;2.90;;;18.10;97.60;;;;;;5038756;28;20538;-94
2022/07/17 07:04:20;;;;;;;4.67;2.77;;;18.20;98.10;;;;;;5036236;28;20957;-94
2022/07/17 07:06:47;;;;;;;7.27;3.27;;;18.30;98.00;;;;;;5035816;28;20655;-92
2022/07/17 07:09:14;;;;;;;3.27;2.97;;;18.40;97.40;;;;;;5034839;28;20460;-91
2022/07/17 07:11:41;;;;;;;3.73;3.43;;;18.50;97.70;;;;;;5035844;28;20461;-92
2022/07/17 07:14:08;;;;;;;3.47;3.17;;;18.60;97.60;;;;;;5036537;28;20461;-92
2022/07/17 07:16:40;;;;;;;4.40;2.90;;;18.70;97.90;;;;;;5034527;28;20480;-92
2022/07/17 07:19:07;;;;;;;3.30;3.00;;;18.80;97.40;;;;;;5033806;28;20462;-93
2022/07/17 07:21:34;;;;;;;5.53;3.20;;;18.90;97.20;;;;;;5033779;28;20542;-92
2022/07/17 07:24:01;;;;;;;3.37;3.00;;;19.10;96.40;;;;;;5034378;28;20913;-92
2022/07/17 07:26:28;;;;;;;3.73;2.47;;;19.20;96.80;;;;;;5034922;28;20668;-92
2022/07/17 07:28:55;;;;;;;3.70;2.93;;;19.30;97.00;;;;;;5033661;28;20476;-91
2022/07/17 07:31:22;;;;;;;2.43;2.23;;;19.50;97.40;;;;;;5034072;28;20462;-93
2022/07/17 07:33:50;;;;;;;3.00;2.80;;;19.60;95.50;;;;;;5034477;28;20552;-92
2022/07/17 07:36:17;;;;;;;4.13;2.77;;;19.70;96.00;;;;;;5033887;28;21011;-90
2022/07/17 07:38:45;;;;;;;4.30;3.87;;;19.90;96.90;;;;;;5035161;28;20460;-92
2022/07/17 07:41:12;;;;;;;4.80;3.17;;;20.00;97.40;;;;;;5034315;28;20463;-92
2022/07/17 07:43:39;;;;;;;3.93;3.40;;;20.00;97.40;;;;;;5034034;28;21020;-92
2022/07/17 07:46:07;;;;;;;3.93;3.53;;;20.10;98.10;;;;;;5035596;28;20548;-92
2022/07/17 07:48:34;;;;;;;4.27;3.87;;;20.20;97.90;;;;;;5052904;28;20550;-92
2022/07/17 07:51:02;;;;;;;3.70;3.40;;;20.30;98.20;;;;;;5047439;28;20823;-92
2022/07/17 07:53:29;;;;;;;4.93;3.93;;;20.30;97.70;;;;;;5046426;28;20487;-92
2022/07/17 07:55:56;;;;;;;3.70;3.40;;;20.30;97.40;;;;;;5040056;28;20491;-93
2022/07/17 07:58:23;;;;;;;7.70;3.70;;;20.40;97.40;;;;;;5036085;28;20464;-93
2022/07/17 08:00:50;;;;;;;3.73;3.43;;;20.50;96.90;;;;;;5045176;28;20465;-92
2022/07/17 08:03:17;;;;;;;6.63;3.57;;;20.60;96.90;;;;;;5047840;28;20456;-92
2022/07/17 08:05:44;;;;;;;3.27;3.03;;;20.70;97.10;;;;;;5053215;28;20467;-91
2022/07/17 08:08:12;;;;;;;3.87;3.47;;;20.70;97.20;;;;;;5038438;28;20457;-92
2022/07/17 08:10:39;;;;;;;4.93;3.50;;;20.80;97.80;;;;;;5041967;28;20463;-94
2022/07/17 08:13:06;;;;;;;3.70;3.40;;;20.90;96.50;;;;;;5047858;28;20504;-92
2022/07/17 08:15:33;;;;;;;5.17;3.50;;;21.10;95.50;;;;;;5036600;28;20456;-93
2022/07/17 08:18:00;;;;;;;4.23;3.83;;;21.10;97.40;;;;;;5053613;28;20470;-93
2022/07/17 08:20:27;;;;;;;4.67;4.00;;;21.20;96.90;;;;;;5024098;28;20467;-92
2022/07/17 08:22:54;;;;;;;5.33;3.30;;;21.30;96.90;;;;;;5049543;28;20460;-93
2022/07/17 08:25:22;;;;;;;4.57;3.63;;;21.40;96.80;;;;;;5037464;28;20460;-93
2022/07/17 08:27:49;;;;;;;3.83;3.50;;;21.50;96.30;;;;;;5058078;28;20487;-94
2022/07/17 08:30:16;;;;;;;3.93;3.50;;;21.60;96.80;;;;;;5046294;28;20961;-94
2022/07/17 08:32:44;;;;;;;4.20;3.10;;;21.80;96.90;;;;;;5056776;28;20569;-94
2022/07/17 08:35:12;;;;;;;3.50;3.20;;;21.90;96.60;;;;;;5051569;28;20487;-94
2022/07/17 08:37:47;;;;;;;3.50;3.20;;;22.10;96.50;;;;;;5049892;28;20919;-93
2022/07/17 08:45:42;;;;;;;3.13;2.93;;;22.30;95.70;;;;;;5056623;28;20551;-70
2022/07/17 08:48:12;;;;;;;3.60;3.30;;;22.40;94.50;;;;;;5051042;28;20962;-69
2022/07/17 08:50:40;;;;;;;4.40;3.77;;;22.50;96.10;;;;;;5065631;28;21076;-69
2022/07/17 08:53:07;;;;;;;4.17;3.47;;;22.60;95.60;;;;;;5061323;28;20853;-70
2022/07/17 08:55:35;;;;;;;5.53;4.00;;;22.70;96.10;;;;;;5059394;28;20541;-70
2022/07/17 08:58:02;;;;;;;4.50;3.10;;;22.80;96.40;;;;;;5068159;28;20970;-69
2022/07/17 09:00:30;;;;;;;3.93;3.50;;;22.90;95.60;;;;;;5054804;28;20520;-70
2022/07/17 09:03:00;;;;;;;4.13;3.43;;;23.00;94.10;;;;;;5063594;28;20462;-70
2022/07/17 09:05:29;;;;;;;3.30;3.00;;;23.10;94.70;;;;;;5062606;28;20485;-70
2022/07/17 09:07:56;;;;;;;2.80;2.60;;;23.20;94.60;;;;;;5055710;28;20514;-70
2022/07/17 09:10:37;;;;;;;6.50;3.30;;;23.40;95.20;;;;;;5067067;28;20463;-70
2022/07/17 09:13:18;;;;;;;5.10;3.30;;;23.50;93.90;;;;;;5051382;28;20663;-70
2022/07/17 09:15:46;;;;;;;3.17;2.60;;;23.50;92.80;;;;;;5051052;28;20577;-71
2022/07/17 09:18:17;;;;;;;2.80;2.60;;;23.70;93.40;;;;;;5050910;28;20466;-71
2022/07/17 09:20:50;;;;;;;3.07;2.77;;;23.70;93.20;;;;;;5050318;28;20570;-71
2022/07/17 09:23:19;;;;;;;3.30;3.00;;;23.80;93.60;;;;;;5049666;28;20942;-71
2022/07/17 09:25:48;;;;;;;2.60;2.40;;;23.90;94.10;;;;;;5050346;28;20486;-71
2022/07/17 09:28:16;;;;;;;4.20;2.60;;;24.00;92.40;;;;;;5049422;28;20506;-70
2022/07/17 09:30:46;;;;;;;3.20;2.90;;;24.00;92.60;;;;;;5049499;28;20931;-70
2022/07/17 09:33:17;;;;;;;2.73;2.53;;;24.20;93.00;;;;;;5049591;28;20490;-72
2022/07/17 09:35:49;;;;;;;2.80;2.60;;;24.20;93.10;;;;;;5049871;28;20498;-71
2022/07/17 09:38:26;;;;;;;2.80;2.30;;;24.30;92.60;;;;;;5049858;28;20474;-71
2022/07/17 09:41:16;;;;;;;4.73;2.70;;;24.40;91.70;;;;;;5049349;28;20466;-72
2022/07/17 09:43:46;;;;;;;2.70;2.50;;;24.40;92.00;;;;;;5049554;28;20475;-71
2022/07/17 09:46:15;;;;;;;3.20;2.67;;;24.40;91.90;;;;;;5049412;28;20483;-71
2022/07/17 09:48:48;;;;;;;3.10;2.80;;;24.60;91.10;;;;;;5049920;28;20475;-71
2022/07/17 09:51:23;;;;;;;3.07;2.30;;;24.60;92.00;;;;;;5049172;28;20468;-71
2022/07/17 09:53:52;;;;;;;3.40;3.10;;;24.60;91.50;;;;;;5050803;28;20489;-71
2022/07/17 09:56:20;;;;;;;4.53;2.93;;;24.70;91.50;;;;;;5050064;28;20994;-71
2022/07/17 09:58:51;;;;;;;3.57;2.90;;;24.90;92.60;;;;;;5050350;28;20463;-71
2022/07/17 10:01:18;;;;;;;4.23;2.63;;;25.00;88.80;;;;;;5049581;28;20467;-71
2022/07/17 10:03:48;;;;;;;3.50;2.50;;;25.00;90.80;;;;;;5050333;28;20971;-70
2022/07/17 10:06:15;;;;;;;5.83;2.40;;;25.10;92.10;;;;;;5046274;28;20848;-71
2022/07/17 10:08:42;;;;;;;3.10;2.80;;;25.10;90.60;;;;;;5040669;28;20471;-71
2022/07/17 10:11:11;;;;;;;2.53;2.10;;;25.10;89.90;;;;;;5042110;28;20459;-70
2022/07/17 10:13:40;;;;;;;4.70;2.47;;;25.10;88.50;;;;;;5049380;28;20483;-70
2022/07/17 10:16:07;;;;;;;3.60;2.33;;;25.10;90.20;;;;;;5048297;28;20487;-70
2022/07/17 10:18:40;;;;;;;5.47;3.20;;;25.20;91.00;;;;;;5048999;28;20475;-70
2022/07/17 10:21:19;;;;;;;4.10;2.70;;;25.40;92.40;;;;;;5048037;28;20564;-70
2022/07/17 10:24:06;;;;;;;2.57;2.37;;;25.50;89.50;;;;;;5050684;28;20554;-70
2022/07/17 10:26:33;;;;;;;5.60;2.27;;;25.60;87.00;;;;;;5049888;28;20490;-69
2022/07/17 10:29:00;;;;;;;2.60;2.40;;;25.80;87.70;;;;;;5050231;28;20470;-72
2022/07/17 10:31:29;;;;;;;3.97;2.17;;;25.90;84.90;;;;;;5049576;28;20606;-71
2022/07/17 10:33:58;;;;;;;2.80;2.40;;;25.90;85.70;;;;;;5049528;28;20486;-71
2022/07/17 10:36:36;;;;;;;2.40;2.20;;;25.90;87.70;;;;;;5049320;28;20526;-70
2022/07/17 10:39:16;;;;;;;2.23;2.03;;;26.00;86.90;;;;;;5049999;28;20970;-70
2022/07/17 10:41:55;;;;;;;3.30;2.20;;;26.10;86.90;;;;;;5049297;28;20463;-71
2022/07/17 10:44:25;;;;;;;2.30;2.13;;;26.20;85.10;;;;;;5049693;28;20470;-71
2022/07/17 10:46:52;;;;;;;2.07;1.97;;;26.20;85.70;;;;;;5050577;28;21029;-70
2022/07/17 10:49:19;;;;;;;2.47;2.27;;;26.20;86.60;;;;;;5049346;28;20978;-71
2022/07/17 10:51:47;;;;;;;2.73;2.10;;;26.30;86.00;;;;;;5050429;28;20970;-70
2022/07/17 10:54:14;;;;;;;1.90;1.80;;;26.50;83.30;;;;;;5048503;28;20490;-71
2022/07/17 10:56:41;;;;;;;2.10;1.97;;;26.50;84.80;;;;;;5050356;28;20490;-72
2022/07/17 10:59:08;;;;;;;2.53;2.20;;;26.60;84.20;;;;;;5049708;28;20463;-71
2022/07/17 11:01:35;;;;;;;2.97;2.23;;;26.60;83.80;;;;;;5050093;28;20525;-71
2022/07/17 11:04:04;;;;;;;2.53;2.33;;;26.60;85.10;;;;;;5050347;28;20459;-71
2022/07/17 11:06:32;;;;;;;2.30;1.80;;;26.70;85.00;;;;;;5049685;28;20475;-71
2022/07/17 11:09:03;;;;;;;4.53;2.07;;;26.90;82.70;;;;;;5050053;28;20499;-71
2022/07/17 11:11:39;;;;;;;2.67;2.40;;;26.90;83.70;;;;;;5049017;28;20983;-71
2022/07/17 11:14:13;;;;;;;2.40;2.20;;;27.00;82.60;;;;;;5050042;28;20492;-71
2022/07/17 11:16:46;;;;;;;2.40;1.87;;;27.10;82.40;;;;;;5050087;28;20482;-71
2022/07/17 11:19:13;;;;;;;2.97;2.13;;;27.20;80.70;;;;;;5049295;28;20466;-71
2022/07/17 11:21:47;;;;;;;2.90;2.20;;;27.30;81.90;;;;;;5050262;28;20460;-71
2022/07/17 11:24:15;;;;;;;1.63;1.53;;;27.40;81.20;;;;;;5048735;28;20471;-71
2022/07/17 11:26:43;;;;;;;2.27;1.77;;;27.60;79.60;;;;;;5049951;28;20854;-71
2022/07/17 11:29:10;;;;;;;2.33;2.00;;;27.60;80.50;;;;;;5049112;28;20864;-71
2022/07/17 11:31:36;;;;;;;3.10;2.00;;;27.70;79.90;;;;;;5049693;28;20472;-71
2022/07/17 11:34:11;;;;;;;2.20;2.00;;;27.80;80.40;;;;;;5048977;28;20494;-70
2022/07/17 11:36:39;;;;;;;1.97;1.87;;;27.90;78.70;;;;;;5049733;28;20483;-70
2022/07/17 11:39:10;;;;;;;2.40;2.13;;;28.00;78.00;;;;;;5049357;28;20462;-71
2022/07/17 11:41:40;;;;;;;1.90;1.80;;;28.00;80.80;;;;;;5049271;28;20469;-72
2022/07/17 11:44:09;;;;;;;2.13;1.93;;;28.00;80.40;;;;;;5049459;28;20500;-71
2022/07/17 11:46:37;;;;;;;2.30;2.10;;;28.20;77.90;;;;;;5049600;28;20547;-70
2022/07/17 11:49:05;;;;;;;3.53;3.23;;;28.20;79.80;;;;;;5049666;28;20843;-70
2022/07/17 11:51:42;;;;;;;2.00;1.90;;;28.20;78.90;;;;;;5049415;28;20472;-70
2022/07/17 11:54:11;;;;;;;5.43;2.20;;;28.20;77.90;;;;;;5049589;28;20578;-71
2022/07/17 11:56:40;;;;;;;2.10;1.90;;;28.30;78.40;;;;;;5049936;28;20512;-71
2022/07/17 11:59:07;;;;;;;2.30;2.10;;;28.10;73.90;;;;;;5049038;28;20469;-71
2022/07/17 12:01:42;;;;;;;2.77;2.30;;;28.10;79.90;;;;;;5049432;28;20495;-71
2022/07/17 12:04:11;;;;;;;4.13;2.37;;;28.10;78.40;;;;;;5049334;28;20472;-71
2022/07/17 12:06:38;;;;;;;2.27;2.00;;;28.20;79.80;;;;;;5167770;22;20682;-94
2022/07/17 12:09:05;;;;;;;2.37;2.17;;;28.30;80.10;;;;;;5051776;22;20945;-73
2022/07/17 12:11:32;;;;;;;2.30;2.10;;;28.30;77.00;;;;;;5022851;28;20541;-73
2022/07/17 12:14:06;;;;;;;2.33;1.83;;;28.30;80.00;;;;;;5030842;28;20492;-73
2022/07/17 12:16:36;;;;;;;2.30;2.10;;;28.40;75.40;;;;;;5030962;28;20524;-73
2022/07/17 12:19:08;;;;;;;2.67;2.47;;;28.30;75.40;;;;;;5031265;28;20462;-72
2022/07/17 12:21:48;;;;;;;3.10;1.93;;;28.30;78.00;;;;;;5031202;28;20473;-72
2022/07/17 12:24:21;;;;;;;4.10;1.87;;;28.40;81.40;;;;;;5030917;28;20517;-72
2022/07/17 12:26:48;;;;;;;2.43;2.23;;;28.50;79.30;;;;;;5031688;28;20479;-74
2022/07/17 12:29:17;;;;;;;3.40;2.70;;;28.60;76.90;;;;;;5030284;28;21020;-73
2022/07/17 12:31:43;;;;;;;4.13;2.70;;;28.70;77.30;;;;;;5031165;28;20467;-72
2022/07/17 12:34:10;;;;;;;2.37;2.17;;;28.80;76.90;;;;;;5007534;28;20491;-73
2022/07/17 12:36:37;;;;;;;2.10;1.90;;;28.80;78.30;;;;;;5010386;28;20884;-72
2022/07/17 12:39:04;;;;;;;2.40;2.20;;;29.00;78.70;;;;;;5009618;28;20505;-73
2022/07/17 12:41:31;;;;;;;2.40;2.20;;;29.20;76.70;;;;;;5009573;28;20504;-72
2022/07/17 12:43:57;;;;;;;3.17;2.30;;;29.40;76.40;;;;;;5011836;28;20477;-72
2022/07/17 12:46:25;;;;;;;2.57;2.00;;;29.30;75.80;;;;;;5013194;28;20496;-73
2022/07/17 12:48:52;;;;;;;2.37;2.17;;;29.40;77.70;;;;;;5014093;28;20483;-72
2022/07/17 12:51:19;;;;;;;2.30;2.10;;;29.50;78.90;;;;;;5013138;28;20518;-73
2022/07/17 12:53:46;;;;;;;2.40;2.20;;;29.50;75.30;;;;;;5012921;28;21054;-70
2022/07/17 12:56:13;;;;;;;2.40;2.13;;;29.50;74.40;;;;;;5013599;28;20993;-73
2022/07/17 12:58:40;;;;;;;2.07;1.87;;;29.50;77.00;;;;;;5013610;28;20470;-72
2022/07/17 13:01:07;;;;;;;2.17;1.97;;;29.50;77.10;;;;;;5012355;28;20467;-72
2022/07/17 13:03:35;;;;;;;3.63;3.33;;;29.50;74.90;;;;;;5013701;28;20477;-72
2022/07/17 13:06:02;;;;;;;2.20;2.00;;;29.50;75.10;;;;;;5013812;28;20488;-72
2022/07/17 13:08:29;;;;;;;2.23;2.00;;;29.60;76.90;;;;;;5013851;28;20479;-73
2022/07/17 13:10:56;;;;;;;3.20;2.53;;;29.60;76.50;;;;;;5013030;28;20469;-73
2022/07/17 13:13:23;;;;;;;2.40;2.20;;;29.60;75.80;;;;;;5011158;28;20494;-72
2022/07/17 13:15:50;;;;;;;2.20;2.00;;;29.60;73.70;;;;;;5009453;28;20482;-73
2022/07/17 13:18:17;;;;;;;2.53;2.10;;;29.70;73.80;;;;;;5009070;28;20992;-72
2022/07/17 13:20:46;;;;;;;2.27;2.07;;;29.70;72.30;;;;;;5009160;28;20472;-72